Time;durP1;ratioP1;P1;durP2;ratioP2;P2;SDS_P1;SDS_P2;PMS_P1;PMS_P2;Temp;Humidity;BMP_temperature;BMP_pressure;BME280_temperature;BME280_humidity;BME280_pressure;Samples;Min_cycle;Max_cycle;Signal;HPM_P1;HPM_P2
2022/07/06 00:02:03;;;;;;;6.20;0.77;;;;;;;14.01;100.00;101018.06;7392796;19;20014;-82
2022/07/06 00:04:29;;;;;;;0.45;0.25;;;;;;;14.04;100.00;101015.06;7397355;19;20015;-82
2022/07/06 00:06:56;;;;;;;1.17;0.60;;;;;;;14.05;100.00;101018.66;7400941;19;20030;-82
2022/07/06 00:09:22;;;;;;;0.63;0.40;;;;;;;14.04;100.00;101008.69;7393933;19;20487;-81
2022/07/06 00:11:48;;;;;;;0.68;0.30;;;;;;;14.03;100.00;101010.75;7392789;19;20015;-80
2022/07/06 00:14:14;;;;;;;0.13;0.13;;;;;;;14.02;100.00;101009.16;7388763;19;20042;-80
2022/07/06 00:16:40;;;;;;;1.17;0.45;;;;;;;13.99;100.00;101007.31;7391974;19;20492;-81
2022/07/06 00:19:07;;;;;;;4.40;0.45;;;;;;;13.99;100.00;101003.75;7392439;19;20374;-81
2022/07/06 00:21:33;;;;;;;1.52;0.95;;;;;;;13.98;100.00;100999.38;7389669;19;20018;-80
2022/07/06 00:24:00;;;;;;;1.80;0.30;;;;;;;13.97;100.00;100997.84;7389786;19;20082;-81
2022/07/06 00:26:26;;;;;;;2.03;1.15;;;;;;;13.94;100.00;101007.97;7388531;19;20023;-80
2022/07/06 00:28:52;;;;;;;9.82;1.30;;;;;;;13.94;100.00;101007.19;7393015;19;20057;-81
2022/07/06 00:31:18;;;;;;;2.78;1.13;;;;;;;13.92;100.00;101009.66;7389542;19;20018;-81
2022/07/06 00:33:45;;;;;;;2.78;0.75;;;;;;;13.90;100.00;101012.16;7390429;19;20033;-80
2022/07/06 00:36:11;;;;;;;0.57;0.43;;;;;;;13.89;100.00;101011.38;7389337;19;20713;-82
2022/07/06 00:38:37;;;;;;;2.63;0.57;;;;;;;13.88;100.00;101006.25;7389668;19;20014;-81
2022/07/06 00:41:04;;;;;;;1.95;0.40;;;;;;;13.86;100.00;101011.56;7389709;19;20026;-81
2022/07/06 00:43:47;;;;;;;0.65;0.65;;;;;;;13.82;100.00;101006.09;7393532;19;20018;-81
2022/07/06 00:46:13;;;;;;;1.40;0.47;;;;;;;13.84;100.00;101014.06;7391085;19;20014;-80
2022/07/06 00:48:39;;;;;;;3.63;0.65;;;;;;;13.82;100.00;101017.31;7392188;19;20029;-80
2022/07/06 00:51:06;;;;;;;1.50;0.45;;;;;;;13.82;100.00;101006.09;7389372;19;20479;-81
2022/07/06 00:53:32;;;;;;;3.00;0.82;;;;;;;13.83;100.00;101004.88;7389154;19;20014;-81
2022/07/06 00:55:58;;;;;;;0.30;0.30;;;;;;;13.82;100.00;100994.16;7390744;19;20395;-82
2022/07/06 00:58:25;;;;;;;1.75;0.60;;;;;;;13.80;100.00;101007.81;7387889;19;20018;-81
2022/07/06 01:00:51;;;;;;;3.13;0.43;;;;;;;13.79;100.00;101000.69;7385703;19;20364;-82
2022/07/06 01:03:18;;;;;;;4.13;0.77;;;;;;;13.79;100.00;100995.84;7388598;19;20018;-82
2022/07/06 01:05:44;;;;;;;1.50;0.50;;;;;;;13.80;100.00;101002.22;7389554;19;20050;-83
2022/07/06 01:08:11;;;;;;;1.95;0.50;;;;;;;13.79;100.00;101000.69;7388075;19;20033;-83
2022/07/06 01:10:38;;;;;;;1.40;0.20;;;;;;;13.84;100.00;101002.84;7388855;19;20587;-83
2022/07/06 01:13:04;;;;;;;0.70;0.63;;;;;;;13.86;100.00;100998.31;7393270;19;20019;-86
2022/07/06 01:15:30;;;;;;;1.73;0.38;;;;;;;13.87;100.00;101001.91;7388832;19;20027;-86
2022/07/06 01:17:57;;;;;;;1.75;0.75;;;;;;;13.88;100.00;101003.47;7394726;19;20090;-87
2022/07/06 01:20:29;;;;;;;0.50;0.30;;;;;;;13.89;100.00;100993.78;7393219;19;20358;-86
2022/07/06 01:22:59;;;;;;;0.60;0.50;;;;;;;13.91;100.00;100997.69;7396044;19;20467;-86
2022/07/06 01:25:26;;;;;;;2.88;0.85;;;;;;;13.91;100.00;101003.28;7391164;19;20142;-91
2022/07/06 01:27:52;;;;;;;0.82;0.40;;;;;;;13.95;100.00;101003.09;7394215;19;20011;-93
2022/07/06 01:30:19;;;;;;;0.40;0.40;;;;;;;13.99;100.00;101006.53;7398038;19;20022;-86
2022/07/06 01:32:46;;;;;;;1.20;0.50;;;;;;;14.00;100.00;101008.88;7388013;19;20022;-86
2022/07/06 01:35:15;;;;;;;1.13;0.20;;;;;;;14.01;100.00;101001.25;7387548;19;20030;-85
2022/07/06 01:37:42;;;;;;;0.88;0.47;;;;;;;14.02;100.00;101002.78;7388323;19;20408;-86
2022/07/06 01:40:10;;;;;;;1.08;0.63;;;;;;;14.07;100.00;101002.16;7394186;19;20023;-86
2022/07/06 01:42:36;;;;;;;1.10;0.88;;;;;;;14.09;100.00;100996.84;7394457;19;20018;-85
2022/07/06 01:45:04;;;;;;;2.15;0.50;;;;;;;14.11;100.00;100999.97;7387395;19;20018;-85
2022/07/06 01:47:30;;;;;;;6.22;0.80;;;;;;;14.16;100.00;101002.13;7389589;19;20480;-84
2022/07/06 01:50:01;;;;;;;2.30;0.63;;;;;;;14.20;100.00;100997.91;7392872;19;20035;-85
2022/07/06 01:52:30;;;;;;;2.03;0.32;;;;;;;14.24;100.00;100992.13;7389374;19;20029;-85
2022/07/06 01:54:57;;;;;;;2.67;0.80;;;;;;;14.25;100.00;100988.09;7388612;19;20026;-85
2022/07/06 01:57:23;;;;;;;0.73;0.32;;;;;;;14.26;100.00;100981.22;7388394;19;20141;-85
2022/07/06 01:59:50;;;;;;;1.23;0.52;;;;;;;14.32;100.00;100979.34;7391909;19;20762;-86
2022/07/06 02:02:17;;;;;;;2.50;0.70;;;;;;;14.33;100.00;100978.91;7387884;19;20007;-86
2022/07/06 02:04:44;;;;;;;1.67;0.40;;;;;;;14.37;100.00;100978.72;7389658;19;20018;-86
2022/07/06 02:07:11;;;;;;;2.45;0.88;;;;;;;14.41;100.00;100973.72;7390766;19;20462;-86
2022/07/06 02:09:37;;;;;;;3.45;1.27;;;;;;;14.43;100.00;100965.59;7391854;19;20022;-86
2022/07/06 02:12:04;;;;;;;2.72;0.65;;;;;;;14.45;100.00;100960.28;7390371;19;20117;-85
2022/07/06 02:14:30;;;;;;;1.05;0.57;;;;;;;14.47;100.00;100960.59;7385935;19;20358;-84
2022/07/06 02:16:57;;;;;;;3.15;0.90;;;;;;;14.50;100.00;100942.84;7387291;19;20025;-85
2022/07/06 02:19:23;;;;;;;8.50;1.27;;;;;;;14.51;100.00;100944.38;7387927;19;20014;-85
2022/07/06 02:21:49;;;;;;;2.90;1.33;;;;;;;14.54;100.00;100937.03;7387154;19;20081;-85
2022/07/06 02:24:16;;;;;;;1.17;0.47;;;;;;;14.53;100.00;100930.66;7389105;19;20121;-84
2022/07/06 02:26:43;;;;;;;2.85;1.00;;;;;;;14.52;100.00;100923.50;7386963;19;20014;-85
2022/07/06 02:29:09;;;;;;;2.35;1.13;;;;;;;14.55;100.00;100928.16;7390038;19;20025;-84
2022/07/06 02:31:35;;;;;;;3.20;0.90;;;;;;;14.56;100.00;100929.72;7386707;19;20416;-85
2022/07/06 02:34:01;;;;;;;6.20;1.15;;;;;;;14.56;100.00;100935.31;7387267;19;20540;-84
2022/07/06 02:36:27;;;;;;;2.22;0.93;;;;;;;14.58;100.00;100932.81;7387166;19;20014;-84
2022/07/06 02:38:53;;;;;;;4.25;1.08;;;;;;;14.60;100.00;100935.91;7386787;19;20011;-84
2022/07/06 02:41:20;;;;;;;6.25;1.48;;;;;;;14.61;100.00;100926.25;7388703;19;20011;-85
2022/07/06 02:43:46;;;;;;;3.88;1.33;;;;;;;14.64;100.00;100930.91;7394732;19;20021;-85
2022/07/06 02:46:12;;;;;;;5.22;2.10;;;;;;;14.69;100.00;100929.47;7417613;19;20027;-85
2022/07/06 02:48:40;;;;;;;4.45;2.05;;;;;;;14.69;100.00;100932.28;7417287;19;20014;-86
2022/07/06 02:51:06;;;;;;;2.58;1.15;;;;;;;14.69;100.00;100933.06;7405373;19;20033;-85
2022/07/06 02:53:33;;;;;;;9.20;1.23;;;;;;;14.67;100.00;100932.75;7390159;19;20093;-86
2022/07/06 02:56:00;;;;;;;4.82;1.92;;;;;;;14.70;100.00;100928.22;7392039;19;20010;-86
2022/07/06 02:58:27;;;;;;;4.75;1.75;;;;;;;14.70;100.00;100928.22;7390425;19;20022;-87
2022/07/06 03:00:54;;;;;;;1.60;0.85;;;;;;;14.71;100.00;100933.34;7387832;19;20021;-87
2022/07/06 03:03:20;;;;;;;3.80;1.48;;;;;;;14.71;100.00;100940.97;7388137;19;20022;-85
2022/07/06 03:05:48;;;;;;;3.10;1.30;;;;;;;14.71;100.00;100930.53;7392565;19;20029;-85
2022/07/06 03:08:15;;;;;;;2.45;0.60;;;;;;;14.70;100.00;100934.63;7391106;19;20427;-87
2022/07/06 03:10:42;;;;;;;3.28;1.40;;;;;;;14.72;100.00;100940.50;7391824;19;20011;-87
2022/07/06 03:13:08;;;;;;;1.40;0.63;;;;;;;14.71;100.00;100936.16;7392897;19;20428;-87
2022/07/06 03:15:34;;;;;;;1.83;1.00;;;;;;;14.71;100.00;100941.75;7389677;19;20011;-86
2022/07/06 03:18:02;;;;;;;0.93;0.47;;;;;;;14.71;100.00;100940.97;7392579;19;20159;-86
2022/07/06 03:20:29;;;;;;;1.60;1.02;;;;;;;14.72;100.00;100940.50;7390928;19;20025;-87
2022/07/06 03:22:55;;;;;;;0.82;0.77;;;;;;;14.77;100.00;100942.66;7394855;19;20035;-89
2022/07/06 03:25:23;;;;;;;1.08;0.68;;;;;;;14.77;100.00;100939.09;7388230;19;20026;-88
2022/07/06 03:27:50;;;;;;;3.22;0.82;;;;;;;14.75;100.00;100939.53;7390339;19;20014;-89
2022/07/06 03:30:18;;;;;;;2.10;0.93;;;;;;;14.79;100.00;100945.75;7396988;19;20037;-88
2022/07/06 03:32:49;;;;;;;3.80;0.82;;;;;;;14.77;100.00;100951.06;7390010;19;20019;-88
2022/07/06 03:35:17;;;;;;;2.47;1.23;;;;;;;14.78;100.00;100935.78;7391167;19;20022;-88
2022/07/06 03:37:44;;;;;;;4.25;0.90;;;;;;;14.80;100.00;100943.72;7389219;19;20011;-88
2022/07/06 03:40:11;;;;;;;3.67;1.10;;;;;;;14.81;100.00;100940.44;7394479;19;20026;-89
2022/07/06 03:42:38;;;;;;;2.90;1.15;;;;;;;14.83;100.00;100954.00;7392353;19;20032;-88
2022/07/06 03:45:07;;;;;;;4.90;1.55;;;;;;;14.85;100.00;100949.47;7385761;19;20017;-88
2022/07/06 03:47:33;;;;;;;5.93;1.83;;;;;;;14.81;100.00;100939.69;7392119;19;20006;-89
2022/07/06 03:49:59;;;;;;;7.63;2.22;;;;;;;14.83;100.00;100934.38;7392222;19;20011;-89
2022/07/06 03:52:26;;;;;;;7.30;2.03;;;;;;;14.82;100.00;100942.00;7391504;19;20014;-88
2022/07/06 03:54:56;;;;;;;6.05;1.75;;;;;;;14.82;100.00;100942.00;7389924;19;20015;-88
2022/07/06 03:57:26;;;;;;;3.72;0.80;;;;;;;14.86;100.00;100942.59;7389295;19;20076;-89
2022/07/06 03:59:53;;;;;;;3.25;1.10;;;;;;;14.93;100.00;100947.84;7397263;19;20232;-88
2022/07/06 04:02:21;;;;;;;3.88;1.40;;;;;;;14.92;100.00;100951.13;7394689;19;20015;-89
2022/07/06 04:04:49;;;;;;;3.58;1.08;;;;;;;14.95;100.00;100956.53;7395146;19;20014;-88
2022/07/06 04:07:15;;;;;;;6.22;1.60;;;;;;;14.91;100.00;100950.34;7396912;19;20022;-89
2022/07/06 04:09:41;;;;;;;4.45;1.50;;;;;;;14.93;100.00;100947.84;7399955;19;20473;-89
2022/07/06 04:12:08;;;;;;;1.50;0.93;;;;;;;14.91;100.00;100938.34;7401562;19;20017;-88
2022/07/06 04:14:35;;;;;;;1.58;0.88;;;;;;;14.94;100.00;100940.19;7392067;19;20038;-88
2022/07/06 04:17:51;;;;;;;2.78;0.85;;;;;;;14.92;100.00;100942.72;7398022;19;20002;-86
2022/07/06 04:19:50;;;;;;;3.10;1.13;;;;;;;14.91;100.00;100939.13;7396026;19;20346;-87
2022/07/06 04:22:16;;;;;;;2.38;1.00;;;;;;;14.92;100.00;100942.72;7396457;19;20014;-87
2022/07/06 04:24:42;;;;;;;2.17;0.93;;;;;;;14.92;100.00;100946.28;7393209;19;20958;-86
2022/07/06 04:27:09;;;;;;;4.75;1.30;;;;;;;14.90;100.00;100942.41;7393877;19;20035;-86
2022/07/06 04:29:35;;;;;;;1.77;0.45;;;;;;;14.93;100.00;100947.84;7399387;19;20474;-87
2022/07/06 04:32:01;;;;;;;3.75;0.52;;;;;;;14.92;100.00;100946.28;7393853;19;20018;-86
2022/07/06 04:34:28;;;;;;;1.70;0.63;;;;;;;14.93;100.00;100942.22;7394631;19;20014;-86
2022/07/06 04:36:55;;;;;;;2.15;0.82;;;;;;;14.90;100.00;100940.38;7396470;19;20509;-87
2022/07/06 04:39:21;;;;;;;2.47;1.02;;;;;;;14.94;100.00;100945.81;7393498;19;20014;-86
2022/07/06 04:41:47;;;;;;;1.80;0.80;;;;;;;14.94;100.00;100938.16;7396214;19;20023;-86
2022/07/06 04:44:13;;;;;;;3.65;1.40;;;;;;;14.91;100.00;100949.56;7394555;19;20492;-86
2022/07/06 04:46:40;;;;;;;3.53;1.10;;;;;;;14.94;100.00;100948.63;7396008;19;20039;-87
2022/07/06 04:49:06;;;;;;;0.80;0.52;;;;;;;14.93;100.00;100947.84;7397431;19;20019;-86
2022/07/06 04:51:33;;;;;;;3.88;0.80;;;;;;;14.92;100.00;100943.47;7393340;19;20548;-86
2022/07/06 04:54:00;;;;;;;1.65;0.70;;;;;;;14.91;100.00;100941.16;7393429;19;20070;-85
2022/07/06 04:56:27;;;;;;;1.05;0.45;;;;;;;14.91;100.00;100943.97;7391167;19;20027;-86
2022/07/06 04:58:54;;;;;;;7.25;1.40;;;;;;;14.92;100.00;100940.66;7395476;19;20026;-87
2022/07/06 05:01:21;;;;;;;1.25;0.52;;;;;;;14.94;100.00;100943.00;7391636;19;20386;-86
2022/07/06 05:03:49;;;;;;;1.75;0.57;;;;;;;14.92;100.00;100934.31;7387476;19;20469;-85
2022/07/06 05:06:19;;;;;;;0.70;0.60;;;;;;;14.93;100.00;100947.84;7396307;19;20575;-87
2022/07/06 05:08:46;;;;;;;0.80;0.52;;;;;;;14.94;100.00;100954.97;7390645;19;20021;-87
2022/07/06 05:11:12;;;;;;;1.92;1.08;;;;;;;14.92;100.00;100951.88;7395781;19;20018;-87
2022/07/06 05:13:38;;;;;;;2.42;0.40;;;;;;;14.90;100.00;100942.41;7393751;19;20422;-87
2022/07/06 05:16:05;;;;;;;4.20;0.30;;;;;;;14.87;100.00;100944.16;7395055;19;20063;-86
2022/07/06 05:18:31;;;;;;;1.17;0.70;;;;;;;14.94;100.00;100934.59;7393785;19;20022;-86
2022/07/06 05:20:58;;;;;;;0.60;0.40;;;;;;;14.94;100.00;100931.78;7387473;19;20087;-87
2022/07/06 05:23:25;;;;;;;1.05;0.22;;;;;;;14.95;100.00;100945.31;7395076;19;20364;-87
2022/07/06 05:25:54;;;;;;;0.82;0.52;;;;;;;14.92;100.00;100939.91;7392537;19;20016;-87
2022/07/06 05:28:20;;;;;;;0.63;0.25;;;;;;;14.92;100.00;100951.88;7396160;19;20034;-87
2022/07/06 05:30:47;;;;;;;2.47;1.05;;;;;;;14.92;100.00;100951.88;7394916;19;20051;-87
2022/07/06 05:33:13;;;;;;;0.82;0.28;;;;;;;14.96;100.00;100963.72;7390203;19;20377;-85
2022/07/06 05:35:40;;;;;;;1.17;0.20;;;;;;;14.94;100.00;100957.78;7390551;19;20070;-85
2022/07/06 05:38:07;;;;;;;8.95;0.30;;;;;;;14.91;100.00;100960.78;7391303;19;20018;-85
2022/07/06 05:40:33;;;;;;;3.00;0.47;;;;;;;14.93;100.00;100964.66;7406944;19;20040;-85
2022/07/06 05:42:59;;;;;;;0.55;0.38;;;;;;;14.94;100.00;100966.19;7417973;19;20002;-85
2022/07/06 05:45:26;;;;;;;1.30;0.22;;;;;;;14.95;100.00;100967.75;7413592;19;20017;-86
2022/07/06 05:50:38;;;;;;;1.60;1.13;;;;;;;14.95;100.00;100967.75;7390297;19;20031;-85
2022/07/06 05:53:05;;;;;;;0.63;0.50;;;;;;;14.95;100.00;100967.75;7393057;19;20025;-85
2022/07/06 05:55:32;;;;;;;1.10;0.50;;;;;;;14.96;100.00;100974.94;7388889;19;20010;-86
2022/07/06 05:58:00;;;;;;;0.60;0.10;;;;;;;14.97;100.00;100959.66;7389382;19;20015;-84
2022/07/06 06:00:29;;;;;;;0.75;0.20;;;;;;;14.94;100.00;100966.19;7392230;19;20018;-86
2022/07/06 06:03:01;;;;;;;0.95;0.38;;;;;;;14.99;100.00;100970.38;7388114;19;20011;-85
2022/07/06 06:05:27;;;;;;;1.10;0.30;;;;;;;14.97;100.00;100973.66;7387334;19;20023;-84
2022/07/06 06:07:58;;;;;;;0.70;0.25;;;;;;;14.99;100.00;100976.78;7389870;19;20015;-85
2022/07/06 06:10:26;;;;;;;0.70;0.30;;;;;;;14.96;100.00;100974.94;7397216;19;20077;-86
2022/07/06 06:12:56;;;;;;;2.10;0.30;;;;;;;14.93;100.00;100978.69;7390249;19;20018;-85
2022/07/06 06:15:22;;;;;;;0.60;0.52;;;;;;;14.95;100.00;100975.41;7386702;19;20486;-85
2022/07/06 06:17:48;;;;;;;0.50;0.38;;;;;;;14.97;100.00;100975.69;7392404;19;20035;-85
2022/07/06 06:20:15;;;;;;;0.50;0.38;;;;;;;14.96;100.00;100974.16;7392721;19;20022;-85
2022/07/06 06:22:49;;;;;;;1.05;0.43;;;;;;;14.97;100.00;100965.25;7385388;19;20018;-85
2022/07/06 06:25:17;;;;;;;0.60;0.20;;;;;;;14.97;100.00;100968.06;7386230;19;20047;-85
2022/07/06 06:27:43;;;;;;;1.05;0.77;;;;;;;15.03;100.00;100968.94;7389084;19;20033;-84
2022/07/06 06:30:10;;;;;;;0.77;0.47;;;;;;;15.04;100.00;100975.34;7389915;19;20014;-84
2022/07/06 06:32:37;;;;;;;2.10;0.43;;;;;;;15.06;100.00;100967.22;7387296;19;20364;-84
2022/07/06 06:35:04;;;;;;;1.27;0.40;;;;;;;15.09;100.00;100972.63;7386280;19;20055;-84
2022/07/06 06:37:34;;;;;;;0.90;0.50;;;;;;;15.11;100.00;100972.94;7388904;19;20349;-84
2022/07/06 06:40:00;;;;;;;0.73;0.55;;;;;;;15.12;100.00;100982.91;7390208;19;20019;-85
2022/07/06 06:42:26;;;;;;;0.40;0.30;;;;;;;15.07;100.00;100983.56;7392782;19;20345;-85
2022/07/06 06:44:53;;;;;;;0.75;0.30;;;;;;;15.04;100.00;100987.34;7391445;19;20040;-86
2022/07/06 06:47:20;;;;;;;3.30;0.30;;;;;;;15.02;100.00;100983.47;7387552;19;20029;-85
2022/07/06 06:49:46;;;;;;;0.50;0.10;;;;;;;15.02;100.00;100992.66;7389984;19;20276;-85
2022/07/06 06:52:13;;;;;;;0.63;0.32;;;;;;;15.00;100.00;100986.75;7388946;19;20031;-84
2022/07/06 06:54:40;;;;;;;0.77;0.50;;;;;;;14.97;100.00;100987.69;7385887;19;20476;-85
2022/07/06 06:57:06;;;;;;;0.45;0.10;;;;;;;14.95;100.00;100983.81;7387956;19;20504;-85
2022/07/06 06:59:32;;;;;;;0.28;0.22;;;;;;;14.95;100.00;100998.63;7389221;19;20090;-85
2022/07/06 07:01:58;;;;;;;0.32;0.22;;;;;;;14.95;100.00;101004.22;7386301;19;20014;-85
2022/07/06 07:04:24;;;;;;;1.73;0.25;;;;;;;14.99;100.00;100995.63;7388430;19;20456;-86
2022/07/06 07:06:51;;;;;;;0.15;0.10;;;;;;;15.04;100.00;101004.19;7389639;19;20038;-86
2022/07/06 07:09:17;;;;;;;2.33;0.45;;;;;;;14.96;100.00;101003.00;7390993;19;20019;-87
2022/07/06 07:11:43;;;;;;;0.93;0.10;;;;;;;14.97;100.00;100995.31;7392047;19;20018;-88
2022/07/06 07:14:09;;;;;;;1.85;0.15;;;;;;;14.94;100.00;100988.63;7387347;19;20033;-87
2022/07/06 07:16:35;;;;;;;0.73;0.30;;;;;;;15.03;100.00;100985.00;7390516;19;20360;-85
2022/07/06 07:19:01;;;;;;;0.77;0.40;;;;;;;15.10;100.00;100982.63;7392062;19;20019;-87
2022/07/06 07:21:27;;;;;;;0.47;0.17;;;;;;;15.04;100.00;100970.50;7388003;19;20010;-87
2022/07/06 07:23:54;;;;;;;1.35;0.45;;;;;;;15.04;100.00;100969.72;7388666;19;20728;-88
2022/07/06 07:26:20;;;;;;;0.20;0.10;;;;;;;15.03;100.00;100976.56;7388284;19;20014;-86
2022/07/06 07:28:46;;;;;;;0.10;0.10;;;;;;;15.05;100.00;100974.84;7394552;19;20580;-86
2022/07/06 07:31:12;;;;;;;0.20;0.10;;;;;;;15.09;100.00;100967.03;7389969;19;20015;-86
2022/07/06 07:33:39;;;;;;;0.20;0.20;;;;;;;15.12;100.00;100966.06;7387890;19;20029;-86
2022/07/06 07:36:05;;;;;;;0.30;0.13;;;;;;;15.12;100.00;100971.69;7397599;19;20015;-86
2022/07/06 07:38:31;;;;;;;0.20;0.20;;;;;;;15.22;100.00;100963.19;7394493;19;20011;-89
2022/07/06 07:40:57;;;;;;;1.02;0.32;;;;;;;15.27;100.00;100966.09;7396873;19;20015;-88
2022/07/06 07:43:23;;;;;;;0.82;0.20;;;;;;;15.35;100.00;100958.88;7401361;19;20022;-88
2022/07/06 07:45:50;;;;;;;6.78;0.30;;;;;;;15.36;100.00;100962.44;7399392;19;20022;-88
2022/07/06 07:48:16;;;;;;;0.22;0.17;;;;;;;15.38;100.00;100971.16;7400590;19;20015;-88
2022/07/06 07:50:42;;;;;;;0.60;0.20;;;;;;;15.42;100.00;100977.38;7396505;19;20045;-88
2022/07/06 07:53:08;;;;;;;0.68;0.20;;;;;;;15.46;100.00;100972.38;7400537;19;20040;-88
2022/07/06 07:55:34;;;;;;;1.40;0.20;;;;;;;15.46;100.00;100963.94;7397763;19;20026;-86
2022/07/06 07:58:01;;;;;;;0.90;0.22;;;;;;;15.47;100.00;100962.69;7396369;19;20014;-86
2022/07/06 08:00:28;;;;;;;0.43;0.17;;;;;;;15.62;100.00;100963.47;7400693;19;20074;-86
2022/07/06 08:02:54;;;;;;;0.40;0.10;;;;;;;15.76;100.00;100966.28;7393975;19;20019;-85
2022/07/06 08:05:21;;;;;;;0.47;0.28;;;;;;;15.78;100.00;100948.94;7393353;19;20022;-86
2022/07/06 08:07:47;;;;;;;1.15;0.22;;;;;;;15.76;100.00;100968.31;7393759;19;20504;-87
2022/07/06 08:10:13;;;;;;;0.35;0.25;;;;;;;15.72;100.00;100962.13;7401718;19;20480;-87
2022/07/06 08:12:40;;;;;;;0.45;0.10;;;;;;;15.64;100.00;100960.94;7398883;19;20015;-86
2022/07/06 08:15:07;;;;;;;0.55;0.38;;;;;;;15.56;100.00;100977.41;7390755;19;20027;-87
2022/07/06 08:17:33;;;;;;;1.70;0.30;;;;;;;15.60;100.00;100978.00;7396929;19;20092;-86
2022/07/06 08:20:00;;;;;;;0.40;0.10;;;;;;;15.55;100.00;100980.72;7395044;19;20045;-87
2022/07/06 08:22:29;;;;;;;1.17;0.38;;;;;;;15.56;100.00;100977.41;7396822;19;20023;-87
2022/07/06 08:24:56;;;;;;;0.50;0.28;;;;;;;15.62;100.00;100983.91;7394111;19;20010;-87
2022/07/06 08:27:22;;;;;;;0.82;0.20;;;;;;;15.69;100.00;100983.53;7394038;19;20375;-86
2022/07/06 08:29:48;;;;;;;2.40;0.30;;;;;;;15.69;100.00;100975.09;7401094;19;20508;-86
2022/07/06 08:32:15;;;;;;;0.32;0.10;;;;;;;15.76;100.00;100974.72;7392077;19;20105;-86
2022/07/06 08:34:43;;;;;;;0.10;0.10;;;;;;;15.84;100.00;100972.28;7393357;19;20029;-86
2022/07/06 08:37:09;;;;;;;0.98;0.32;;;;;;;16.01;100.00;100973.34;7406716;19;20037;-86
2022/07/06 08:39:35;;;;;;;0.10;0.00;;;;;;;16.11;100.00;100977.59;7404173;19;20483;-88
2022/07/06 08:42:02;;;;;;;1.25;0.15;;;;;;;16.09;100.00;100973.72;7393669;19;20020;-86
2022/07/06 08:44:32;;;;;;;0.17;0.17;;;;;;;16.08;100.00;100977.78;7390158;19;20025;-86
2022/07/06 08:47:04;;;;;;;1.08;0.43;;;;;;;16.10;100.00;100981.66;7395423;19;20041;-86
2022/07/06 08:49:32;;;;;;;1.73;0.25;;;;;;;16.12;100.00;100979.13;7396494;19;20015;-87
2022/07/06 08:51:58;;;;;;;1.83;0.20;;;;;;;16.19;100.00;100978.75;7395893;19;20018;-87
2022/07/06 08:54:26;;;;;;;1.48;0.50;;;;;;;16.35;100.00;100981.03;7395390;19;20007;-87
2022/07/06 08:56:52;;;;;;;0.22;0.13;;;;;;;16.46;100.00;100969.94;7394036;19;20010;-87
2022/07/06 08:59:18;;;;;;;4.20;0.40;;;;;;;16.39;100.00;100970.38;7396869;19;20338;-86
2022/07/06 09:01:46;;;;;;;0.30;0.10;;;;;;;16.31;100.00;100966.41;7390719;19;20403;-87
2022/07/06 09:04:16;;;;;;;0.20;0.20;;;;;;;16.24;100.00;100969.59;7389237;19;20376;-88
2022/07/06 09:06:45;;;;;;;0.43;0.17;;;;;;;16.32;100.00;100987.66;7397186;19;20783;-86
2022/07/06 09:09:19;;;;;;;0.52;0.45;;;;;;;16.59;100.00;100973.25;7395381;19;20006;-88
2022/07/06 09:11:45;;;;;;;0.68;0.40;;;;;;;16.90;100.00;100974.66;7396771;19;20038;-86
2022/07/06 09:14:11;;;;;;;1.55;0.38;;;;;;;17.16;100.00;100986.75;7391302;19;20015;-87
2022/07/06 09:16:37;;;;;;;0.70;0.38;;;;;;;17.18;100.00;100975.78;7395017;19;20018;-86
2022/07/06 09:19:05;;;;;;;0.63;0.32;;;;;;;16.97;100.00;100974.25;7392826;19;20026;-84
2022/07/06 09:21:32;;;;;;;0.32;0.10;;;;;;;16.72;100.00;100967.28;7391317;19;20027;-86
2022/07/06 09:24:02;;;;;;;0.57;0.15;;;;;;;16.61;100.00;100970.72;7391005;19;20105;-84
2022/07/06 09:26:28;;;;;;;4.57;0.40;;;;;;;16.48;100.00;100970.22;7391086;19;20415;-85
2022/07/06 09:28:56;;;;;;;0.45;0.25;;;;;;;16.38;100.00;100974.44;7394915;19;20544;-86
2022/07/06 09:31:23;;;;;;;1.13;0.30;;;;;;;16.31;100.00;100979.69;7389734;19;20044;-85
2022/07/06 09:34:05;;;;;;;1.15;0.25;;;;;;;16.25;100.00;100993.66;7391608;19;20082;-84
2022/07/06 09:36:47;;;;;;;0.47;0.20;;;;;;;16.17;100.00;100986.91;7391723;19;20048;-85
2022/07/06 09:39:27;;;;;;;2.15;0.63;;;;;;;16.18;100.00;100977.19;7390021;19;20019;-85
2022/07/06 09:41:57;;;;;;;0.22;0.20;;;;;;;16.16;100.00;100976.91;7391503;19;20026;-85
2022/07/06 09:44:30;;;;;;;7.30;0.95;;;;;;;16.33;100.00;100977.94;7392346;19;20049;-85
2022/07/06 09:46:59;;;;;;;0.38;0.28;;;;;;;16.43;100.00;100979.38;7391032;19;20011;-84
2022/07/06 09:49:26;;;;;;;0.77;0.50;;;;;;;16.51;100.00;100983.34;7390165;19;20025;-84
2022/07/06 09:51:55;;;;;;;5.20;0.50;;;;;;;16.72;100.00;100972.91;7390198;19;20026;-84
2022/07/06 09:54:21;;;;;;;0.40;0.40;;;;;;;16.75;100.00;100979.59;7389976;19;20044;-84
2022/07/06 09:56:52;;;;;;;0.60;0.30;;;;;;;16.84;100.00;100965.38;7388856;19;20032;-83
2022/07/06 09:59:21;;;;;;;4.15;0.22;;;;;;;16.95;100.00;100971.16;7390066;19;20038;-83
2022/07/06 10:01:50;;;;;;;5.07;0.25;;;;;;;16.92;100.00;100977.75;7387225;19;20496;-83
2022/07/06 10:04:18;;;;;;;2.92;0.30;;;;;;;16.78;100.00;100984.25;7386874;19;20022;-83
2022/07/06 10:06:44;;;;;;;0.15;0.15;;;;;;;16.67;100.00;100977.19;7387303;19;20022;-83
2022/07/06 10:09:13;;;;;;;0.30;0.20;;;;;;;16.59;100.00;100983.72;7388088;19;20469;-82
2022/07/06 10:11:44;;;;;;;0.50;0.25;;;;;;;16.62;100.00;100983.53;7386625;19;20389;-83
2022/07/06 10:14:14;;;;;;;0.20;0.10;;;;;;;16.73;100.00;100993.38;7386023;19;20014;-82
2022/07/06 10:16:40;;;;;;;1.40;0.30;;;;;;;17.01;100.00;100977.63;7387067;19;20022;-82
2022/07/06 10:19:09;;;;;;;0.40;0.20;;;;;;;17.34;100.00;100989.28;7388242;19;20018;-83
2022/07/06 10:21:37;;;;;;;1.30;0.25;;;;;;;17.58;100.00;100977.81;7388510;19;20110;-83
2022/07/06 10:24:07;;;;;;;1.48;0.50;;;;;;;17.99;100.00;100968.72;7387839;19;20026;-83
2022/07/06 10:26:34;;;;;;;3.03;0.32;;;;;;;18.68;100.00;100967.41;7386891;19;20010;-83
2022/07/06 10:29:03;;;;;;;4.60;0.47;;;;;;;19.08;100.00;100966.31;7390245;19;20021;-83
2022/07/06 10:31:30;;;;;;;1.60;0.85;;;;;;;19.32;100.00;100958.19;7386808;19;20014;-83
2022/07/06 10:33:58;;;;;;;0.75;0.10;;;;;;;19.15;100.00;100960.19;7385005;19;20480;-84
2022/07/06 10:36:25;;;;;;;0.60;0.10;;;;;;;18.86;100.00;100966.22;7386905;19;20480;-83
2022/07/06 10:38:53;;;;;;;0.73;0.40;;;;;;;18.96;100.00;100969.59;7387918;19;20015;-83
2022/07/06 10:41:31;;;;;;;0.10;0.00;;;;;;;18.99;100.00;100975.03;7384554;19;20029;-83
2022/07/06 10:43:58;;;;;;;0.40;0.30;;;;;;;18.89;100.00;100974.44;7389396;19;20014;-80
2022/07/06 10:46:28;;;;;;;2.53;0.40;;;;;;;18.51;100.00;100977.84;7387410;19;20014;-82
2022/07/06 10:48:56;;;;;;;0.73;0.25;;;;;;;18.14;100.00;100969.34;7389255;19;20053;-80
2022/07/06 10:51:27;;;;;;;1.08;0.32;;;;;;;17.83;100.00;100965.72;7386126;19;20034;-80
2022/07/06 10:54:05;;;;;;;;;;;;;;;17.82;100.00;100967.78;7388281;19;20014;-80
2022/07/06 10:56:47;;;;;;;2.67;0.35;;;;;;;18.03;100.00;100976.94;7385276;19;19922;-81
2022/07/06 10:59:23;;;;;;;1.95;0.35;;;;;;;18.48;100.00;100963.94;7386851;19;20038;-81
2022/07/06 11:02:18;;;;;;;0.73;0.52;;;;;;;18.85;100.00;100959.03;7387529;19;20029;-80
2022/07/06 11:04:46;;;;;;;2.33;0.10;;;;;;;19.16;100.00;100953.25;7384808;19;20022;-81
2022/07/06 11:07:18;;;;;;;3.08;0.28;;;;;;;19.14;100.00;100936.06;7387858;19;20369;-81
2022/07/06 11:09:57;;;;;;;0.35;0.13;;;;;;;19.02;100.00;100944.97;7393806;19;20030;-82
2022/07/06 11:12:23;;;;;;;7.07;0.50;;;;;;;18.79;100.00;100949.78;7394646;19;20154;-81
2022/07/06 11:14:51;;;;;;;0.30;0.10;;;;;;;18.58;100.00;100951.22;7390041;19;20014;-82
2022/07/06 11:17:18;;;;;;;0.52;0.32;;;;;;;18.26;100.00;100958.16;7393099;19;20507;-82
2022/07/06 11:19:49;;;;;;;2.17;0.30;;;;;;;18.02;100.00;100953.59;7395326;19;20018;-81
2022/07/06 11:22:18;;;;;;;1.75;0.20;;;;;;;17.82;100.00;100962.13;7393802;19;20376;-83